TFM - Tactical Decision Aid
ID: Runway Winds: CIG/VIS Threshold:

KAGS - Augusta Rgnl, GA, US

Updated at: 1132 UTC 26 Sep 2018
Latest TAF at: 1121 UTC 26 Sep 2018

TAF Board

Time1053Z 26/12Z 26/13Z 26/14Z 26/15Z 26/16Z 26/17Z 26/18Z 26/19Z 26/20Z 26/21Z 26/22Z 26/23Z 27/00Z>>
Type OBS PRVL PRVL PRVL PRVL PRVL PRVL PRVL PRVL PRVL PRVL PRVL PRVL PRVL
VIS 6 6 6 >6 >6 >6 >6 >6 >6 >6 >6 >6 >6 >6
CIG -- -- -- -- 35 35 35 35 35 40 40 40 40 100
Cover FEW SCT SCT SCT BKN BKN BKN BKN BKN BKN BKN BKN BKN BKN
FltCat VFR VFR VFR VFR VFR VFR VFR VFR VFR VFR VFR VFR VFR VFR
WX BR BR BR -- -- -- -- -- -- -- -- -- -- --
WDir VRB VRB VRB 210 230 230 230 230 230 240 240 240 240 VRB
WSpd 0 0 0 4 6 6 6 6 6 7 7 7 7 3
WGst -- -- -- -- -- -- -- -- -- -- -- -- -- --

TDA Impact Legend

  None Marginal Slight Moderate High
Visibility (sm) >5 3≤X≤5 2≤X<3 0.5≤X<2 <0.5
Ceiling (100 ft) >30 10≤X≤30 7≤X<10 2≤X<7 <2
Wind Speed (kt) <15 15≤X<25 25≤X<30 ≥30
Wind Gust (kt) <15 15≤X<25 25≤X<35 ≥35
Weather No Wx Reported VCTS -TS,-FZRA TS,FZRA +TS,+FZRA
TAF
KAGS 261121Z 2612/2712 00000KT 6SM BR SCT004
  FM261400 21004KT P6SM SCT010
  FM261500 23006KT P6SM BKN035
  FM262000 24007KT P6SM BKN040
  FM270000 VRB03KT P6SM SCT040 BKN100


METAR
KAGS 261053Z 00000KT 6SM BR FEW035 21/21 A3010 RMK AO2 SLP190 T02110206
KAGS 260957Z AUTO 00000KT 3SM BR FEW005 BKN050 21/21 A3009 RMK AO2 T02110206
KAGS 260953Z AUTO 00000KT 1 1/2SM BR SCT005 BKN050 21/21 A3009 RMK AO2 SLP187 T02110206
KAGS 260943Z AUTO 00000KT 1 1/2SM BR FEW007 21/21 A3009 RMK AO2 VIS 1V2 T02060206
KAGS 260935Z AUTO 00000KT 2 1/2SM BR FEW008 21/20 A3008 RMK AO2 T02060200
KAGS 260859Z AUTO 00000KT 3SM BR CLR 21/21 A3008 RMK AO2 T02110206
KAGS 260853Z AUTO 00000KT 1 1/4SM BR CLR 21/21 A3008 RMK AO2 SLP183 T02110211 56014
KAGS 260848Z AUTO 00000KT 1 3/4SM BR CLR 21/21 A3008 RMK AO2
KAGS 260826Z AUTO 00000KT 5SM BR FEW007 21/21 A3008 RMK AO2 T02110211
KAGS 260818Z AUTO 00000KT 2SM BR FEW007 21/21 A3008 RMK AO2 T02110206
KAGS 260808Z AUTO 00000KT 1SM BR VV007 21/21 A3009 RMK AO2 VIS 1/2V2 1/2 T02110206 RVRNO

Radar Display
Forecast Discussion